Time;durP1;ratioP1;P1;durP2;ratioP2;P2;SDS_P1;SDS_P2;PMS_P1;PMS_P2;Temp;Humidity;BMP_temperature;BMP_pressure;BME280_temperature;BME280_humidity;BME280_pressure;Samples;Min_cycle;Max_cycle;Signal;HPM_P1;HPM_P2
2021/11/30 00:01:53;;;;;;;0.20;0.10;;;;;;;5.24;100.00;100030.94;5022935;28;20521;-49
2021/11/30 00:04:20;;;;;;;0.20;0.10;;;;;;;5.41;100.00;100023.69;5018707;28;20455;-49
2021/11/30 00:06:47;;;;;;;0.20;0.10;;;;;;;5.40;100.00;100036.88;5020334;28;20473;-49
2021/11/30 00:12:16;;;;;;;0.30;0.20;;;;;;;5.25;100.00;100030.91;5035262;28;20460;-49
2021/11/30 00:14:45;;;;;;;0.20;0.10;;;;;;;5.20;100.00;100023.94;5035522;28;20448;-49
2021/11/30 00:17:17;;;;;;;0.30;0.20;;;;;;;5.21;100.00;100038.88;5035432;28;20505;-48
2021/11/30 00:19:44;;;;;;;0.20;0.10;;;;;;;5.34;100.00;100027.28;5023405;28;20452;-49
2021/11/30 00:22:13;;;;;;;0.20;0.10;;;;;;;5.16;100.00;100024.84;5028221;28;20546;-48
2021/11/30 00:24:40;;;;;;;0.20;0.10;;;;;;;5.09;100.00;100033.72;5031133;28;20448;-48
2021/11/30 00:27:11;;;;;;;0.20;0.10;;;;;;;5.19;100.00;100051.16;5022048;28;20454;-48
2021/11/30 00:29:38;;;;;;;0.20;0.10;;;;;;;5.17;100.00;100024.84;5035186;28;20448;-48
2021/11/30 00:32:06;;;;;;;0.20;0.10;;;;;;;5.24;100.00;100031.81;5035054;28;20464;-48
2021/11/30 00:34:32;;;;;;;0.20;0.10;;;;;;;5.05;100.00;100030.22;5034918;28;20448;-49
2021/11/30 00:36:59;;;;;;;0.20;0.10;;;;;;;5.06;100.00;100026.72;5034874;28;20484;-49
2021/11/30 00:39:26;;;;;;;0.20;0.10;;;;;;;5.11;100.00;100032.81;5028083;28;20451;-49
2021/11/30 00:41:56;;;;;;;0.20;0.10;;;;;;;5.08;100.00;100034.63;5047137;28;20923;-49
2021/11/30 00:44:26;;;;;;;0.20;0.10;;;;;;;5.10;100.00;100036.34;5021507;28;20477;-49
2021/11/30 00:46:56;;;;;;;0.40;0.33;;;;;;;4.96;100.00;100031.22;5035584;28;20451;-49
2021/11/30 00:49:25;;;;;;;0.20;0.10;;;;;;;4.92;100.00;100031.25;5034574;28;20451;-49
2021/11/30 00:51:55;;;;;;;0.20;0.10;;;;;;;5.14;100.00;100027.50;5034556;28;21057;-49
2021/11/30 00:54:23;;;;;;;0.20;0.10;;;;;;;5.05;100.00;100038.13;5031527;28;20448;-49
2021/11/30 00:56:51;;;;;;;0.20;0.17;;;;;;;4.94;100.00;100034.75;5014832;28;20448;-49
2021/11/30 00:59:18;;;;;;;0.20;0.20;;;;;;;4.84;100.00;100039.25;5018712;28;20455;-49
2021/11/30 01:01:45;;;;;;;0.20;0.10;;;;;;;4.84;100.00;100041.00;5023327;28;20488;-48
2021/11/30 01:04:12;;;;;;;0.20;0.10;;;;;;;4.86;100.00;100037.47;5027855;28;20463;-49
2021/11/30 01:06:39;;;;;;;0.30;0.20;;;;;;;4.81;100.00;100039.28;5025866;28;20487;-48
2021/11/30 01:09:08;;;;;;;0.20;0.13;;;;;;;4.85;99.90;100045.38;5016194;28;20511;-48
2021/11/30 01:11:35;;;;;;;0.20;0.10;;;;;;;4.86;100.00;100045.34;5014611;28;20464;-48
2021/11/30 01:14:02;;;;;;;0.20;0.10;;;;;;;4.95;99.55;100044.41;5014495;28;21026;-48
2021/11/30 01:16:29;;;;;;;0.20;0.10;;;;;;;4.92;98.77;100049.69;5014251;28;20476;-48
2021/11/30 01:18:55;;;;;;;0.20;0.10;;;;;;;4.86;99.49;100053.25;5019826;28;20452;-48
2021/11/30 01:21:22;;;;;;;0.20;0.10;;;;;;;4.92;98.50;100045.28;5021640;28;20489;-49
2021/11/30 01:23:49;;;;;;;0.20;0.10;;;;;;;4.91;98.93;100040.91;5032708;28;20452;-48
2021/11/30 01:26:16;;;;;;;0.20;0.10;;;;;;;4.79;99.28;100053.31;5022094;28;20448;-48
2021/11/30 01:28:43;;;;;;;0.20;0.10;;;;;;;4.88;98.96;100048.84;5032883;28;20448;-49
2021/11/30 01:31:09;;;;;;;0.20;0.10;;;;;;;4.79;98.94;100059.44;5033888;28;20839;-48
2021/11/30 01:33:36;;;;;;;0.20;0.10;;;;;;;4.83;98.65;100055.06;5034022;28;20448;-48
2021/11/30 01:36:04;;;;;;;0.20;0.10;;;;;;;4.70;98.07;100052.53;5034102;28;20482;-49
2021/11/30 01:38:32;;;;;;;0.20;0.10;;;;;;;4.84;98.39;100047.13;5027852;28;20510;-48
2021/11/30 01:41:01;;;;;;;0.20;0.13;;;;;;;4.69;98.76;100056.03;5046261;28;20524;-49
2021/11/30 01:43:37;;;;;;;0.20;0.10;;;;;;;4.80;99.00;100044.53;5020585;28;20988;-48
2021/11/30 01:46:10;;;;;;;0.20;0.10;;;;;;;4.93;98.65;100054.06;5022074;28;20445;-49
2021/11/30 01:51:25;;;;;;;0.20;0.10;;;;;;;4.63;98.41;100063.09;5033456;28;20483;-49
2021/11/30 01:53:52;;;;;;;0.20;0.10;;;;;;;4.62;98.33;100071.88;5033337;28;20917;-48
2021/11/30 01:56:20;;;;;;;1.57;0.97;;;;;;;4.55;98.84;100067.56;5014389;28;20511;-49
2021/11/30 01:58:48;;;;;;;0.30;0.30;;;;;;;4.67;98.86;100071.00;5026420;28;20455;-49
2021/11/30 02:01:15;;;;;;;0.20;0.10;;;;;;;4.73;98.48;100065.66;5019961;28;21002;-49
2021/11/30 02:03:42;;;;;;;0.20;0.20;;;;;;;4.60;98.00;100069.28;5019969;28;20449;-49
2021/11/30 02:06:09;;;;;;;0.20;0.10;;;;;;;4.63;98.17;100066.59;5026117;28;20453;-49
2021/11/30 02:08:36;;;;;;;0.20;0.10;;;;;;;4.63;98.35;100063.97;5027023;28;20482;-49
2021/11/30 02:11:03;;;;;;;0.20;0.10;;;;;;;4.54;97.45;100068.47;5033292;28;20471;-49
2021/11/30 02:13:31;;;;;;;0.20;0.10;;;;;;;4.60;98.48;100060.50;5033182;28;20506;-48
2021/11/30 02:16:00;;;;;;;0.20;0.10;;;;;;;4.56;97.16;100061.44;5033179;28;20486;-49
2021/11/30 02:18:28;;;;;;;0.20;0.10;;;;;;;4.54;97.04;100050.03;5031061;28;20490;-49
2021/11/30 02:20:58;;;;;;;0.20;0.10;;;;;;;4.47;97.53;100052.69;5021594;28;20471;-49
2021/11/30 02:26:09;;;;;;;0.20;0.10;;;;;;;4.60;96.54;100045.59;5022503;28;20526;-48
2021/11/30 02:28:38;;;;;;;0.20;0.10;;;;;;;4.45;96.90;100046.59;5031606;28;20443;-49
2021/11/30 02:31:04;;;;;;;0.20;0.10;;;;;;;4.72;96.49;100053.38;5032812;28;20529;-49
2021/11/30 02:33:31;;;;;;;0.20;0.10;;;;;;;4.63;96.22;100044.69;5031753;28;20869;-49
2021/11/30 02:35:59;;;;;;;0.20;0.10;;;;;;;4.50;96.83;100035.13;5032713;28;20448;-48
2021/11/30 02:38:26;;;;;;;0.20;0.10;;;;;;;4.53;96.71;100050.94;5027584;28;20510;-49
2021/11/30 02:40:53;;;;;;;0.20;0.10;;;;;;;4.53;97.43;100050.94;5043479;28;20999;-49
2021/11/30 02:43:19;;;;;;;0.20;0.10;;;;;;;4.60;97.41;100044.72;5027513;28;20939;-48
2021/11/30 02:45:46;;;;;;;0.20;0.10;;;;;;;4.54;97.00;100050.03;5025182;28;20448;-49
2021/11/30 02:48:12;;;;;;;0.20;0.10;;;;;;;4.68;96.95;100049.03;5032816;28;20479;-48
2021/11/30 02:50:41;;;;;;;0.20;0.10;;;;;;;4.62;96.72;100035.03;5032638;28;20514;-49
2021/11/30 02:53:17;;;;;;;0.20;0.10;;;;;;;4.72;96.41;100029.69;5032502;28;20494;-48
2021/11/30 02:55:45;;;;;;;0.20;0.10;;;;;;;4.70;96.56;100022.69;5017978;28;20843;-48
2021/11/30 02:58:13;;;;;;;0.20;0.10;;;;;;;4.69;97.29;100024.47;5020703;28;20525;-48
2021/11/30 03:00:40;;;;;;;0.20;0.10;;;;;;;4.56;96.44;100024.56;5018825;28;20464;-48
2021/11/30 03:03:07;;;;;;;0.20;0.10;;;;;;;4.55;97.33;100022.84;5023910;28;20488;-48
2021/11/30 03:05:34;;;;;;;0.20;0.10;;;;;;;4.78;96.58;100026.13;5008365;28;20510;-49
2021/11/30 03:08:00;;;;;;;0.30;0.20;;;;;;;4.59;97.37;100017.53;5021211;28;20807;-48
2021/11/30 03:10:27;;;;;;;0.20;0.10;;;;;;;4.48;97.39;100014.09;5032032;28;20468;-48
2021/11/30 03:12:54;;;;;;;0.20;0.10;;;;;;;4.64;97.30;100006.94;5032326;28;20498;-48
2021/11/30 03:15:23;;;;;;;0.20;0.10;;;;;;;4.68;97.43;100012.19;5032018;28;20456;-48
2021/11/30 03:17:50;;;;;;;0.20;0.10;;;;;;;4.65;97.16;100004.28;5032248;28;20827;-48
2021/11/30 03:20:18;;;;;;;0.20;0.20;;;;;;;4.63;97.94;99999.94;5018885;28;20933;-48
2021/11/30 03:22:46;;;;;;;0.20;0.10;;;;;;;4.73;97.10;99991.06;5022374;28;20515;-48
2021/11/30 03:25:14;;;;;;;0.20;0.10;;;;;;;4.85;96.63;99990.94;5025565;28;20907;-48
2021/11/30 03:27:42;;;;;;;0.20;0.10;;;;;;;4.73;98.05;99993.69;5023173;28;20810;-48
2021/11/30 03:30:11;;;;;;;0.20;0.20;;;;;;;4.85;98.21;99974.28;5031765;28;20831;-49
2021/11/30 03:35:23;;;;;;;0.20;0.10;;;;;;;4.68;99.23;99971.81;5032221;28;20482;-48
2021/11/30 03:37:51;;;;;;;0.20;0.13;;;;;;;4.76;99.26;99969.97;5031239;28;20536;-49
2021/11/30 03:40:18;;;;;;;0.20;0.10;;;;;;;4.81;99.08;99967.31;5032950;28;20501;-48
2021/11/30 03:42:45;;;;;;;0.20;0.10;;;;;;;4.84;100.00;99962.88;5036760;28;20546;-49
2021/11/30 03:45:13;;;;;;;0.20;0.10;;;;;;;4.95;99.68;99942.56;5022578;28;20494;-49
2021/11/30 03:47:40;;;;;;;0.20;0.10;;;;;;;4.94;100.00;99929.41;5036506;28;20451;-48
2021/11/30 03:50:07;;;;;;;0.20;0.10;;;;;;;4.84;100.00;99926.00;5035741;28;20447;-49
2021/11/30 03:52:35;;;;;;;1.07;0.97;;;;;;;4.95;100.00;99931.16;5035553;28;20951;-49
2021/11/30 03:55:03;;;;;;;0.20;0.10;;;;;;;4.79;100.00;99932.19;5027510;28;20448;-49
2021/11/30 03:57:49;;;;;;;0.20;0.10;;;;;;;4.74;100.00;99932.25;5020519;28;20558;-49
2021/11/30 04:00:16;;;;;;;0.20;0.10;;;;;;;4.75;100.00;99932.25;5024509;28;20448;-49
2021/11/30 04:02:43;;;;;;;0.20;0.10;;;;;;;4.82;100.00;99924.28;5028892;28;20491;-49
2021/11/30 04:05:10;;;;;;;0.20;0.10;;;;;;;4.77;100.00;99919.06;5026718;28;20447;-49
2021/11/30 04:07:36;;;;;;;0.20;0.10;;;;;;;4.82;100.00;99916.41;5022337;28;20447;-49
2021/11/30 04:10:04;;;;;;;0.20;0.10;;;;;;;4.81;100.00;99901.50;5035414;28;20448;-49
2021/11/30 04:12:30;;;;;;;0.20;0.13;;;;;;;4.78;100.00;99898.88;5035250;28;20443;-49
2021/11/30 04:14:57;;;;;;;0.20;0.10;;;;;;;4.76;100.00;99894.50;5035410;28;20482;-49
2021/11/30 04:17:23;;;;;;;0.20;0.10;;;;;;;4.89;100.00;99900.50;5035276;28;20490;-49
2021/11/30 04:19:50;;;;;;;0.20;0.10;;;;;;;4.84;100.00;99885.66;5023762;28;20455;-49
2021/11/30 04:22:22;;;;;;;0.20;0.10;;;;;;;4.89;100.00;99881.19;5028531;28;20571;-49
2021/11/30 04:24:48;;;;;;;0.20;0.10;;;;;;;4.98;100.00;99874.06;5032149;28;20515;-49
2021/11/30 04:27:15;;;;;;;0.20;0.10;;;;;;;4.98;100.00;99865.28;5021614;28;20831;-49
2021/11/30 04:29:43;;;;;;;0.20;0.10;;;;;;;4.68;100.00;99866.53;5035040;28;20870;-49
2021/11/30 04:32:10;;;;;;;0.20;0.10;;;;;;;4.73;100.00;99859.44;5035319;28;20844;-49
2021/11/30 04:34:36;;;;;;;0.20;0.10;;;;;;;4.61;100.00;99844.66;5034951;28;20535;-49
2021/11/30 04:37:03;;;;;;;0.20;0.10;;;;;;;4.76;100.00;99840.97;5035077;28;20455;-49
2021/11/30 04:39:30;;;;;;;0.20;0.10;;;;;;;4.59;100.00;99846.44;5029816;28;20497;-49
2021/11/30 04:41:56;;;;;;;0.20;0.10;;;;;;;4.84;100.00;99843.53;5047576;28;20487;-48
2021/11/30 04:44:26;;;;;;;0.20;0.10;;;;;;;4.45;100.00;99843.97;5021636;28;20801;-48
2021/11/30 04:47:11;;;;;;;0.20;0.10;;;;;;;4.58;100.00;99838.56;5035588;28;20443;-48
2021/11/30 04:49:52;;;;;;;0.20;0.10;;;;;;;4.65;100.00;99840.22;5034970;28;20444;-48
2021/11/30 04:52:19;;;;;;;0.20;0.10;;;;;;;4.76;100.00;99843.59;5034833;28;20467;-48
2021/11/30 04:54:45;;;;;;;0.20;0.10;;;;;;;4.64;100.00;99841.13;5028127;28;20448;-48
2021/11/30 04:57:12;;;;;;;0.20;0.10;;;;;;;4.63;100.00;99832.34;5014039;28;20453;-48
2021/11/30 04:59:39;;;;;;;0.20;0.10;;;;;;;4.73;100.00;99835.75;5021443;28;20452;-48
2021/11/30 05:02:05;;;;;;;0.20;0.10;;;;;;;4.58;100.00;99830.66;5021400;28;20507;-49
2021/11/30 05:04:35;;;;;;;0.20;0.10;;;;;;;4.54;100.00;99827.22;5027529;28;20515;-48
2021/11/30 05:07:02;;;;;;;0.20;0.10;;;;;;;4.66;100.00;99815.63;5027810;28;20456;-48
2021/11/30 05:09:29;;;;;;;0.20;0.10;;;;;;;4.54;100.00;99815.81;5014585;28;20484;-48
2021/11/30 05:11:55;;;;;;;0.20;0.10;;;;;;;4.56;100.00;99811.41;5014347;28;20468;-48
2021/11/30 05:14:22;;;;;;;0.20;0.10;;;;;;;4.47;100.00;99801.84;5014650;28;20444;-49
2021/11/30 05:16:49;;;;;;;0.20;0.10;;;;;;;4.61;100.00;99799.03;5014456;28;20453;-48
2021/11/30 05:19:15;;;;;;;1.13;1.13;;;;;;;4.55;100.00;99801.78;5022923;28;20455;-48
2021/11/30 05:21:42;;;;;;;0.30;0.30;;;;;;;4.64;100.00;99806.91;5020622;28;20473;-48
2021/11/30 05:24:10;;;;;;;0.20;0.20;;;;;;;4.52;100.00;99793.88;5033932;28;20491;-48
2021/11/30 05:26:37;;;;;;;1.57;0.83;;;;;;;4.28;100.00;99785.41;5020314;28;20445;-48
2021/11/30 05:29:06;;;;;;;0.20;0.10;;;;;;;4.32;100.00;99788.88;5034354;28;20452;-48
2021/11/30 05:31:32;;;;;;;0.20;0.10;;;;;;;4.23;100.00;99795.09;5033781;28;20727;-47
2021/11/30 05:33:59;;;;;;;0.20;0.10;;;;;;;4.42;100.00;99795.78;5034034;28;20444;-48
2021/11/30 05:36:27;;;;;;;0.20;0.10;;;;;;;4.23;100.00;99788.97;5033819;28;20456;-49
2021/11/30 05:38:54;;;;;;;0.20;0.10;;;;;;;4.20;100.00;99786.38;5026432;28;20518;-48
2021/11/30 05:41:20;;;;;;;0.20;0.10;;;;;;;4.07;100.00;99786.50;5046736;28;20984;-48
2021/11/30 05:43:52;;;;;;;0.20;0.20;;;;;;;4.26;100.00;99794.22;5023983;28;21028;-48
2021/11/30 05:46:20;;;;;;;0.20;0.10;;;;;;;4.37;100.00;99787.91;5031762;28;20452;-48
2021/11/30 05:48:47;;;;;;;0.20;0.20;;;;;;;4.33;100.00;99773.06;5033671;28;20452;-48
2021/11/30 05:51:13;;;;;;;0.20;0.10;;;;;;;4.25;100.00;99774.94;5033576;28;20480;-49
2021/11/30 05:53:40;;;;;;;0.20;0.10;;;;;;;4.35;100.00;99779.16;5033500;28;20448;-48
2021/11/30 05:56:08;;;;;;;0.20;0.10;;;;;;;4.32;100.00;99770.44;5016704;28;20571;-48
2021/11/30 05:58:39;;;;;;;0.20;0.10;;;;;;;4.19;100.00;99756.56;5024235;28;20475;-48
2021/11/30 06:01:21;;;;;;;0.20;0.10;;;;;;;4.26;100.00;99768.78;5020109;28;20463;-48
2021/11/30 06:06:18;;;;;;;0.20;0.10;;;;;;;4.06;100.00;99758.47;5025316;28;20444;-48
2021/11/30 06:08:45;;;;;;;0.20;0.10;;;;;;;3.95;100.00;99757.69;5027902;28;20451;-48
2021/11/30 06:11:12;;;;;;;0.20;0.10;;;;;;;4.11;100.00;99750.50;5032954;28;20846;-48
2021/11/30 06:13:39;;;;;;;0.20;0.10;;;;;;;4.19;100.00;99753.06;5033051;28;20448;-48
2021/11/30 06:16:05;;;;;;;0.20;0.10;;;;;;;4.14;100.00;99747.88;5033062;28;20456;-48
2021/11/30 06:18:32;;;;;;;0.20;0.10;;;;;;;3.97;100.00;99744.53;5031164;28;20532;-47
2021/11/30 06:20:58;;;;;;;0.20;0.20;;;;;;;4.06;100.00;99745.31;5021197;28;20463;-47
2021/11/30 06:23:25;;;;;;;0.20;0.10;;;;;;;4.15;100.00;99736.47;5023510;28;20488;-49
2021/11/30 06:25:52;;;;;;;0.20;0.10;;;;;;;4.16;100.00;99738.19;5024757;28;20966;-47
2021/11/30 06:28:18;;;;;;;0.20;0.10;;;;;;;4.02;100.00;99727.84;5027962;28;20482;-48
2021/11/30 06:30:45;;;;;;;0.20;0.10;;;;;;;3.94;100.00;99719.16;5032937;28;20541;-48
2021/11/30 06:33:12;;;;;;;0.20;0.10;;;;;;;4.14;100.00;99726.84;5032650;28;20478;-48
2021/11/30 06:35:39;;;;;;;0.30;0.27;;;;;;;3.98;100.00;99715.63;5032721;28;20965;-47
2021/11/30 06:38:05;;;;;;;0.20;0.10;;;;;;;4.04;100.00;99705.03;5030219;28;20530;-48
2021/11/30 06:40:32;;;;;;;0.20;0.10;;;;;;;4.16;100.00;99709.28;5037872;28;20528;-48
2021/11/30 06:42:59;;;;;;;0.20;0.10;;;;;;;3.98;100.00;99709.50;5033146;28;20496;-48
2021/11/30 06:45:25;;;;;;;0.20;0.10;;;;;;;4.03;100.00;99702.41;5021952;28;20448;-48
2021/11/30 06:47:52;;;;;;;0.20;0.10;;;;;;;3.92;100.00;99702.53;5033556;28;20456;-48
2021/11/30 06:50:19;;;;;;;0.20;0.10;;;;;;;4.02;100.00;99716.44;5032568;28;20486;-48
2021/11/30 06:52:48;;;;;;;0.20;0.10;;;;;;;4.03;100.00;99692.75;5032504;28;20462;-48
2021/11/30 06:55:15;;;;;;;0.20;0.10;;;;;;;4.04;100.00;99706.78;5022381;28;20452;-48
2021/11/30 06:57:42;;;;;;;0.20;0.10;;;;;;;4.09;100.00;99697.06;5016593;28;20455;-47
2021/11/30 07:00:11;;;;;;;0.20;0.10;;;;;;;4.15;100.00;99694.38;5021478;28;20499;-48
2021/11/30 07:02:38;;;;;;;0.20;0.10;;;;;;;4.01;100.00;99697.19;5026234;28;20507;-47
2021/11/30 07:05:42;;;;;;;0.30;0.30;;;;;;;3.93;100.00;99701.63;5023751;28;20498;-48
2021/11/30 07:10:52;;;;;;;0.20;0.10;;;;;;;4.15;100.00;99687.38;5032545;28;20842;-48
2021/11/30 07:16:02;;;;;;;0.20;0.10;;;;;;;4.26;100.00;99689.00;5032263;28;20541;-48
2021/11/30 07:18:31;;;;;;;0.20;0.10;;;;;;;4.27;100.00;99685.47;5031977;28;20458;-48
2021/11/30 07:20:58;;;;;;;0.20;0.10;;;;;;;4.22;100.00;99684.66;5026555;28;20590;-48
2021/11/30 07:23:25;;;;;;;0.20;0.10;;;;;;;4.27;100.00;99688.97;5029464;28;20486;-49
2021/11/30 07:25:53;;;;;;;0.20;0.10;;;;;;;4.11;100.00;99693.56;5030467;28;20491;-48
2021/11/30 07:28:30;;;;;;;0.20;0.10;;;;;;;4.06;100.00;99700.63;5034412;28;20941;-48
2021/11/30 07:31:12;;;;;;;0.20;0.10;;;;;;;4.19;100.00;99700.47;5038754;28;20464;-48
2021/11/30 07:33:43;;;;;;;0.20;0.10;;;;;;;4.11;100.00;99690.94;5038637;28;20944;-48
2021/11/30 07:36:14;;;;;;;0.20;0.10;;;;;;;4.16;100.00;99690.88;5038804;28;20478;-48
2021/11/30 07:38:42;;;;;;;0.20;0.10;;;;;;;4.33;100.00;99694.13;5025514;28;20456;-48
2021/11/30 07:41:10;;;;;;;0.20;0.10;;;;;;;4.32;100.00;99696.78;5051874;28;20482;-51
2021/11/30 07:43:37;;;;;;;0.20;0.10;;;;;;;4.22;100.00;99692.53;5030668;28;20515;-51
2021/11/30 07:46:04;;;;;;;0.30;0.20;;;;;;;4.25;100.00;99688.13;5034129;28;20920;-51
2021/11/30 07:48:31;;;;;;;0.20;0.10;;;;;;;4.26;100.00;99689.88;5038579;28;20561;-51
2021/11/30 07:51:00;;;;;;;0.20;0.10;;;;;;;4.44;100.00;99700.13;5038285;28;20471;-51
2021/11/30 07:53:27;;;;;;;0.20;0.10;;;;;;;4.35;100.00;99683.59;5038447;28;20520;-51
2021/11/30 07:55:54;;;;;;;0.20;0.20;;;;;;;4.25;100.00;99687.22;5022470;28;20519;-51
2021/11/30 07:58:21;;;;;;;0.20;0.10;;;;;;;4.52;100.00;99688.63;5018668;28;20456;-51
2021/11/30 08:00:50;;;;;;;0.20;0.10;;;;;;;4.37;100.00;99682.69;5031526;28;20981;-50
2021/11/30 08:03:18;;;;;;;0.20;0.10;;;;;;;4.34;100.00;99685.34;5028531;28;20530;-51
2021/11/30 08:05:45;;;;;;;0.20;0.10;;;;;;;4.50;100.00;99680.75;5024959;28;20452;-51
2021/11/30 08:08:11;;;;;;;0.20;0.10;;;;;;;4.41;100.00;99665.97;5028089;28;20510;-51
2021/11/30 08:10:38;;;;;;;0.20;0.10;;;;;;;4.55;100.00;99680.72;5018489;28;20533;-50
2021/11/30 08:13:05;;;;;;;0.20;0.10;;;;;;;4.47;100.00;99679.03;5018434;28;20456;-51
2021/11/30 08:15:32;;;;;;;0.20;0.10;;;;;;;4.64;100.00;99680.56;5018632;28;20515;-50
2021/11/30 08:18:01;;;;;;;0.20;0.10;;;;;;;4.62;100.00;99685.84;5018470;28;20928;-51
2021/11/30 08:20:28;;;;;;;0.20;0.10;;;;;;;4.88;100.00;99687.22;5031724;28;20860;-50
2021/11/30 08:22:56;;;;;;;0.20;0.10;;;;;;;4.84;100.00;99691.69;5029574;28;20475;-50
2021/11/30 08:25:22;;;;;;;0.20;0.10;;;;;;;4.60;100.00;99678.88;5032943;28;20448;-51
2021/11/30 08:27:50;;;;;;;0.20;0.10;;;;;;;4.62;100.00;99693.75;5030007;28;20963;-51
2021/11/30 08:30:37;;;;;;;0.20;0.10;;;;;;;4.76;100.00;99686.50;5016207;28;20540;-51
2021/11/30 08:33:04;;;;;;;0.20;0.10;;;;;;;4.82;100.00;99697.88;5015262;28;20449;-51
2021/11/30 08:35:31;;;;;;;0.20;0.10;;;;;;;4.79;100.00;99690.84;5015332;28;20803;-51
2021/11/30 08:37:58;;;;;;;0.20;0.10;;;;;;;4.89;100.00;99691.59;5016923;28;20798;-51
2021/11/30 08:40:24;;;;;;;0.20;0.20;;;;;;;4.67;100.00;99691.94;5043115;28;20502;-51
2021/11/30 08:42:51;;;;;;;0.20;0.10;;;;;;;4.62;100.00;99699.00;5037823;28;20455;-51
2021/11/30 08:45:17;;;;;;;0.20;0.10;;;;;;;4.73;100.00;99704.13;5023372;28;20988;-51
2021/11/30 08:47:44;;;;;;;0.20;0.10;;;;;;;4.63;100.00;99692.84;5035866;28;20510;-50
2021/11/30 08:50:15;;;;;;;0.20;0.10;;;;;;;4.81;100.00;99690.88;5034691;28;20447;-51
2021/11/30 08:52:43;;;;;;;0.20;0.10;;;;;;;4.79;100.00;99701.38;5034605;28;20554;-51
2021/11/30 08:55:11;;;;;;;0.20;0.10;;;;;;;4.84;100.00;99691.69;5025659;28;20506;-51
2021/11/30 08:57:38;;;;;;;0.20;0.10;;;;;;;4.65;100.00;99690.19;5016866;28;20448;-51
2021/11/30 09:00:08;;;;;;;0.20;0.10;;;;;;;4.93;100.00;99686.25;5025498;28;20484;-51
2021/11/30 09:02:35;;;;;;;0.20;0.10;;;;;;;4.84;100.00;99680.28;5027930;28;20510;-51
2021/11/30 09:05:05;;;;;;;0.20;0.10;;;;;;;4.86;100.00;99686.38;5024510;28;20487;-50
2021/11/30 09:07:32;;;;;;;0.20;0.10;;;;;;;4.94;100.00;99682.75;5021264;28;20484;-51
2021/11/30 09:09:59;;;;;;;0.20;0.10;;;;;;;4.92;100.00;99676.63;5034424;28;20458;-51
2021/11/30 09:12:26;;;;;;;0.20;0.10;;;;;;;5.01;100.00;99686.16;5034179;28;20541;-51
2021/11/30 09:14:53;;;;;;;0.20;0.10;;;;;;;5.19;100.00;99682.34;5034245;28;20447;-51
2021/11/30 09:17:36;;;;;;;0.20;0.10;;;;;;;5.18;100.00;99681.47;5034242;28;20853;-51
2021/11/30 09:20:07;;;;;;;0.20;0.10;;;;;;;5.25;100.00;99676.97;5020740;28;20483;-51
2021/11/30 09:22:35;;;;;;;0.20;0.10;;;;;;;5.16;100.00;99680.63;5026422;28;20449;-51
2021/11/30 09:25:04;;;;;;;0.20;0.10;;;;;;;5.09;100.00;99680.78;5031672;28;20549;-51
2021/11/30 09:27:35;;;;;;;0.20;0.10;;;;;;;5.16;100.00;99661.31;5022944;28;20447;-50
2021/11/30 09:30:03;;;;;;;0.20;0.10;;;;;;;5.22;100.00;99671.78;5034481;28;20452;-50
2021/11/30 09:32:30;;;;;;;0.20;0.10;;;;;;;5.19;100.00;99666.53;5033887;28;20455;-51
2021/11/30 09:35:03;;;;;;;0.20;0.10;;;;;;;5.30;100.00;99683.03;5034195;28;20447;-51
2021/11/30 09:37:30;;;;;;;0.20;0.10;;;;;;;5.27;100.00;99675.19;5033947;28;20479;-51
2021/11/30 09:39:59;;;;;;;0.20;0.10;;;;;;;5.12;100.00;99673.69;5031739;28;20447;-50
2021/11/30 09:42:26;;;;;;;0.20;0.10;;;;;;;5.36;100.00;99667.13;5041418;28;20490;-51
2021/11/30 09:44:54;;;;;;;0.20;0.10;;;;;;;5.19;100.00;99662.13;5020337;28;20495;-51
2021/11/30 09:47:21;;;;;;;0.20;0.10;;;;;;;5.30;100.00;99654.03;5034451;28;20447;-51
2021/11/30 09:49:49;;;;;;;0.20;0.10;;;;;;;5.16;100.00;99649.00;5033677;28;20482;-51
2021/11/30 09:52:16;;;;;;;0.20;0.10;;;;;;;5.31;100.00;99639.97;5034043;28;21031;-51
2021/11/30 09:54:42;;;;;;;0.20;0.20;;;;;;;5.32;100.00;99642.56;5027554;28;20934;-50
2021/11/30 09:57:09;;;;;;;0.20;0.10;;;;;;;5.26;100.00;99636.56;5013670;28;20457;-50
2021/11/30 09:59:35;;;;;;;0.20;0.10;;;;;;;5.30;100.00;99631.19;5026739;28;20483;-50
2021/11/30 10:02:03;;;;;;;0.20;0.10;;;;;;;5.52;100.00;99620.28;5026265;28;20475;-50
2021/11/30 10:04:30;;;;;;;0.20;0.10;;;;;;;5.52;100.00;99621.16;5020168;28;20491;-50
2021/11/30 10:06:56;;;;;;;0.20;0.10;;;;;;;5.50;100.00;99615.03;5020350;28;20457;-50
2021/11/30 10:09:24;;;;;;;10.17;2.73;;;;;;;5.56;100.00;99617.53;5033232;28;20517;-50
2021/11/30 10:12:00;;;;;;;0.20;0.10;;;;;;;5.52;100.00;99621.16;5033183;28;20476;-50
2021/11/30 10:14:35;;;;;;;0.20;0.10;;;;;;;5.30;100.00;99610.13;5033136;28;20436;-50
2021/11/30 10:17:23;;;;;;;0.20;0.10;;;;;;;5.43;100.00;99607.25;5033144;28;20444;-50
2021/11/30 10:19:54;;;;;;;0.20;0.10;;;;;;;5.61;100.00;99604.25;5020452;28;20444;-50
2021/11/30 10:22:38;;;;;;;0.20;0.10;;;;;;;5.48;100.00;99601.03;5026441;28;20464;-50
2021/11/30 10:25:27;;;;;;;0.20;0.10;;;;;;;5.41;100.00;99595.88;5030393;28;20500;-50
2021/11/30 10:27:58;;;;;;;0.20;0.10;;;;;;;5.43;100.00;99600.22;5024942;28;20509;-50
2021/11/30 10:30:27;;;;;;;0.20;0.10;;;;;;;5.49;100.00;99589.59;5032693;28;20502;-51
2021/11/30 10:32:56;;;;;;;0.20;0.10;;;;;;;5.48;100.00;99581.69;5033158;28;20810;-50
2021/11/30 10:35:25;;;;;;;0.20;0.10;;;;;;;5.42;100.00;99587.94;5033002;28;20873;-50
2021/11/30 10:37:53;;;;;;;0.20;0.13;;;;;;;5.47;100.00;99591.34;5032213;28;20462;-50
2021/11/30 10:40:23;;;;;;;0.20;0.10;;;;;;;5.49;100.00;99581.69;5034549;28;20454;-50
2021/11/30 10:42:53;;;;;;;0.20;0.10;;;;;;;5.50;100.00;99579.91;5036539;28;20463;-49
2021/11/30 10:45:29;;;;;;;0.20;0.10;;;;;;;5.50;100.00;99569.38;5022060;28;20487;-49
2021/11/30 10:48:12;;;;;;;0.20;0.10;;;;;;;5.54;100.00;99569.25;5033272;28;20447;-49
2021/11/30 10:50:59;;;;;;;0.20;0.10;;;;;;;5.74;100.00;99575.88;5032612;28;20463;-49
2021/11/30 10:53:30;;;;;;;0.20;0.10;;;;;;;5.52;100.00;99571.06;5031799;28;20474;-49
2021/11/30 10:56:01;;;;;;;0.20;0.10;;;;;;;5.60;100.00;99561.22;5016262;28;21004;-49
2021/11/30 10:58:31;;;;;;;0.20;0.10;;;;;;;5.66;100.00;99568.16;5022860;28;20471;-50
2021/11/30 11:01:05;;;;;;;0.20;0.10;;;;;;;5.64;100.00;99570.81;5019189;28;20467;-49
2021/11/30 11:03:33;;;;;;;0.20;0.10;;;;;;;5.67;100.00;99564.63;5020545;28;20444;-49
2021/11/30 11:08:52;;;;;;;0.20;0.10;;;;;;;5.65;100.00;99551.47;5027576;28;20444;-49
2021/11/30 11:11:21;;;;;;;0.20;0.10;;;;;;;5.63;100.00;99555.03;5032208;28;20467;-49
2021/11/30 11:13:48;;;;;;;0.20;0.10;;;;;;;5.62;100.00;99558.56;5032413;28;20518;-49
2021/11/30 11:16:25;;;;;;;0.20;0.10;;;;;;;5.78;100.00;99573.19;5032308;28;20801;-49
2021/11/30 11:18:55;;;;;;;0.20;0.10;;;;;;;5.76;100.00;99572.34;5027901;28;20928;-49
2021/11/30 11:21:29;;;;;;;0.20;0.10;;;;;;;5.75;100.00;99565.31;5023911;28;20471;-49
2021/11/30 11:24:09;;;;;;;0.20;0.20;;;;;;;5.70;100.00;99561.91;5022774;28;20581;-50
2021/11/30 11:26:56;;;;;;;0.20;0.10;;;;;;;5.78;100.00;99569.69;5018668;28;20948;-49
2021/11/30 11:29:26;;;;;;;0.20;0.10;;;;;;;5.73;100.00;99569.75;5032208;28;20444;-49
2021/11/30 11:32:02;;;;;;;0.20;0.10;;;;;;;5.77;100.00;99573.22;5032686;28;20506;-49
2021/11/30 11:34:32;;;;;;;0.20;0.10;;;;;;;5.84;100.00;99569.53;5032267;28;20447;-49
2021/11/30 11:37:01;;;;;;;0.20;0.10;;;;;;;5.73;100.00;99576.78;5032172;28;20517;-49
2021/11/30 11:39:29;;;;;;;0.20;0.10;;;;;;;5.75;100.00;99565.31;5026600;28;20452;-49
2021/11/30 11:41:58;;;;;;;0.20;0.10;;;;;;;5.71;100.00;99566.28;5044110;28;20547;-49
2021/11/30 11:44:26;;;;;;;0.20;0.10;;;;;;;5.67;100.00;99561.13;5018658;28;20944;-49
2021/11/30 11:47:13;;;;;;;0.20;0.10;;;;;;;5.82;100.00;99568.69;5033017;28;20458;-49
2021/11/30 11:49:47;;;;;;;0.20;0.13;;;;;;;5.87;100.00;99562.41;5031856;28;20857;-49
2021/11/30 11:52:27;;;;;;;0.20;0.10;;;;;;;5.81;100.00;99564.31;5031970;28;20495;-49
2021/11/30 11:55:06;;;;;;;0.20;0.20;;;;;;;5.93;100.00;99549.16;5024067;28;20494;-49
2021/11/30 11:57:34;;;;;;;0.20;0.10;;;;;;;5.87;100.00;99559.78;5012095;28;21004;-50
2021/11/30 12:00:17;;;;;;;0.20;0.10;;;;;;;5.86;100.00;99565.97;5022476;28;20455;-50
2021/11/30 12:02:48;;;;;;;0.20;0.10;;;;;;;5.90;100.00;99559.78;5018753;28;20796;-49